Time;durP1;ratioP1;P1;durP2;ratioP2;P2;SDS_P1;SDS_P2;PMS_P1;PMS_P2;Temp;Humidity;BMP_temperature;BMP_pressure;BME280_temperature;BME280_humidity;BME280_pressure;Samples;Min_cycle;Max_cycle;Signal;HPM_P1;HPM_P2
2024/01/24 00:01:54;;;;;;;11.57;2.92;;;;;;;12.68;100.00;101313.69;5013460;28;20056;-82
2024/01/24 00:04:22;;;;;;;5.80;2.20;;;;;;;12.77;100.00;101313.75;5016647;28;20459;-82
2024/01/24 00:06:47;;;;;;;4.55;2.03;;;;;;;12.77;100.00;101304.91;5017223;28;20034;-82
2024/01/24 00:09:13;;;;;;;6.55;2.10;;;;;;;12.81;100.00;101311.16;5017302;28;20037;-82
2024/01/24 00:11:38;;;;;;;5.45;2.03;;;;;;;12.72;100.00;101291.63;5017161;28;20034;-82
2024/01/24 00:14:04;;;;;;;6.20;2.53;;;;;;;12.87;100.00;101327.97;5016910;28;20121;-82
2024/01/24 00:16:29;;;;;;;6.30;2.10;;;;;;;12.86;100.00;101330.63;5017170;28;20030;-82
2024/01/24 00:18:55;;;;;;;5.85;2.17;;;;;;;12.94;100.00;101328.94;5017149;28;20249;-82
2024/01/24 00:21:20;;;;;;;6.72;2.22;;;;;;;12.87;100.00;101341.25;5016572;28;20114;-82
2024/01/24 00:23:45;;;;;;;5.88;2.20;;;;;;;12.99;100.00;101337.81;5016657;28;20528;-82
2024/01/24 00:26:11;;;;;;;5.70;2.05;;;;;;;13.00;100.00;101342.25;5016902;28;20034;-83
2024/01/24 00:28:36;;;;;;;3.58;1.90;;;;;;;12.96;100.00;101320.09;5016848;28;20068;-82
2024/01/24 00:31:01;;;;;;;4.28;2.10;;;;;;;13.00;100.00;101297.16;5016830;28;20033;-82
2024/01/24 00:33:29;;;;;;;5.05;1.88;;;;;;;13.08;100.00;101323.75;5016586;28;20030;-82
2024/01/24 00:35:55;;;;;;;4.88;1.98;;;;;;;13.04;100.00;101293.63;5016746;28;20124;-82
2024/01/24 00:38:20;;;;;;;4.57;1.88;;;;;;;13.12;100.00;101325.53;5016684;28;20038;-82
2024/01/24 00:40:45;;;;;;;6.80;1.77;;;;;;;13.11;100.00;101316.72;5016494;28;20486;-82
2024/01/24 00:43:11;;;;;;;4.20;1.70;;;;;;;13.09;100.00;101304.28;5016594;28;20069;-83
2024/01/24 00:45:36;;;;;;;2.30;1.52;;;;;;;13.09;100.00;101275.09;5016630;28;20026;-82
2024/01/24 00:48:02;;;;;;;5.10;1.80;;;;;;;13.11;100.00;101287.53;5016515;28;20451;-82
2024/01/24 00:50:28;;;;;;;3.63;1.83;;;;;;;13.06;100.00;101281.28;5016351;28;20030;-81
2024/01/24 00:52:55;;;;;;;4.53;1.85;;;;;;;13.21;100.00;101312.34;5016518;28;20033;-82
2024/01/24 00:55:24;;;;;;;3.70;1.92;;;;;;;13.18;100.00;101291.09;4999204;28;20038;-83
2024/01/24 00:57:50;;;;;;;3.22;1.85;;;;;;;13.26;100.00;101294.72;5016718;28;20120;-82
2024/01/24 01:00:15;;;;;;;2.00;1.65;;;;;;;13.21;100.00;101304.38;5016598;28;20124;-82
2024/01/24 01:02:41;;;;;;;4.78;1.90;;;;;;;13.11;100.00;101290.16;5016250;28;20096;-82
2024/01/24 01:05:06;;;;;;;2.53;1.73;;;;;;;13.08;100.00;101281.28;5016289;28;20083;-82
2024/01/24 01:07:32;;;;;;;4.35;1.92;;;;;;;13.02;100.00;101275.06;5016129;28;20084;-83
2024/01/24 01:09:57;;;;;;;4.50;2.00;;;;;;;12.92;100.00;101254.63;5015916;28;20061;-83
2024/01/24 01:12:23;;;;;;;2.50;1.80;;;;;;;12.97;100.00;101275.88;5016063;28;20038;-82
2024/01/24 01:14:48;;;;;;;2.72;1.70;;;;;;;12.81;100.00;101277.56;5015561;28;20038;-83
2024/01/24 01:17:14;;;;;;;5.75;2.10;;;;;;;12.81;100.00;101280.19;5015726;28;20077;-82
2024/01/24 01:19:39;;;;;;;4.03;1.95;;;;;;;12.76;100.00;101285.47;5015945;28;20462;-82
2024/01/24 01:22:05;;;;;;;4.30;1.95;;;;;;;12.78;100.00;101274.88;4998116;28;20038;-82
2024/01/24 01:24:30;;;;;;;3.28;1.80;;;;;;;12.72;100.00;101280.13;5015852;28;20026;-82
2024/01/24 01:26:56;;;;;;;3.60;2.00;;;;;;;12.66;100.00;101261.50;5015439;28;20064;-82
2024/01/24 01:29:21;;;;;;;4.10;1.83;;;;;;;12.43;100.00;101211.81;5015730;28;20030;-83
2024/01/24 01:31:46;;;;;;;3.20;1.70;;;;;;;12.63;100.00;101299.47;5015730;28;20402;-84
2024/01/24 01:34:12;;;;;;;2.70;1.77;;;;;;;12.61;100.00;101252.63;5015632;28;20038;-83
2024/01/24 01:36:37;;;;;;;2.95;1.88;;;;;;;12.62;100.00;101279.13;5015309;28;20030;-82
2024/01/24 01:39:04;;;;;;;3.00;1.60;;;;;;;12.60;100.00;101249.09;4998119;28;20120;-82
2024/01/24 01:41:30;;;;;;;4.07;2.10;;;;;;;12.54;100.00;101265.81;5015628;28;20153;-82
2024/01/24 01:43:55;;;;;;;4.35;1.80;;;;;;;12.61;100.00;101284.44;5015467;28;20490;-82
2024/01/24 01:46:25;;;;;;;1.85;1.70;;;;;;;12.48;100.00;101260.44;5015383;28;20463;-82
2024/01/24 01:48:52;;;;;;;2.58;1.70;;;;;;;12.57;100.00;101278.22;5015246;28;20041;-82
2024/01/24 01:51:19;;;;;;;3.17;1.67;;;;;;;12.50;100.00;101271.06;5014896;28;20101;-82
2024/01/24 01:53:45;;;;;;;4.30;1.88;;;;;;;12.46;100.00;101269.25;5015303;28;20036;-84
2024/01/24 01:56:13;;;;;;;4.00;1.70;;;;;;;12.52;100.00;101278.16;5015268;28;20034;-83
2024/01/24 01:58:40;;;;;;;3.30;1.80;;;;;;;12.45;100.00;101284.28;5015199;28;20088;-82
2024/01/24 02:01:07;;;;;;;2.17;1.73;;;;;;;12.50;100.00;101285.22;4997815;28;20513;-82
2024/01/24 02:03:32;;;;;;;2.88;1.80;;;;;;;12.35;100.00;101265.63;5015117;28;20030;-83
2024/01/24 02:05:58;;;;;;;3.13;2.25;;;;;;;12.30;100.00;101248.78;5015092;28;20462;-83
2024/01/24 02:08:23;;;;;;;3.20;1.50;;;;;;;12.28;100.00;101249.66;5015260;28;20151;-84
2024/01/24 02:10:49;;;;;;;3.90;1.80;;;;;;;12.30;100.00;101254.09;5014930;28;20088;-82
2024/01/24 02:13:14;;;;;;;2.65;1.50;;;;;;;12.33;100.00;101268.25;5014932;28;20038;-83
2024/01/24 02:15:40;;;;;;;2.67;1.70;;;;;;;12.30;100.00;101249.69;5014911;28;20037;-83
2024/01/24 02:18:06;;;;;;;1.77;1.52;;;;;;;12.07;100.00;101243.22;5014955;28;20049;-83
2024/01/24 02:20:32;;;;;;;3.42;1.50;;;;;;;12.10;100.00;101236.22;5014383;28;20076;-83
2024/01/24 02:22:57;;;;;;;2.58;1.70;;;;;;;12.12;100.00;101265.34;4997385;28;20037;-84
2024/01/24 02:25:23;;;;;;;2.33;1.70;;;;;;;12.19;100.00;101259.25;5014211;28;20034;-83
2024/01/24 02:27:48;;;;;;;1.50;1.40;;;;;;;12.10;100.00;101245.94;4996862;28;20108;-83
2024/01/24 02:30:16;;;;;;;2.13;1.50;;;;;;;12.10;100.00;101264.47;5014724;28;20447;-83
2024/01/24 02:32:41;;;;;;;2.00;1.58;;;;;;;12.09;100.00;101257.41;5014584;28;20501;-83
2024/01/24 02:35:07;;;;;;;1.88;1.50;;;;;;;12.05;100.00;101250.28;4996966;28;20038;-83
2024/01/24 02:37:33;;;;;;;1.88;1.35;;;;;;;12.10;100.00;101272.41;5014513;28;20470;-83
2024/01/24 02:39:58;;;;;;;1.60;1.35;;;;;;;12.07;100.00;101267.97;5014176;28;20054;-83
2024/01/24 02:42:24;;;;;;;1.40;1.30;;;;;;;12.14;100.00;101263.63;4997083;28;20537;-83
2024/01/24 02:44:49;;;;;;;1.65;1.40;;;;;;;12.11;100.00;101280.38;5014471;28;20510;-83
2024/01/24 02:47:14;;;;;;;1.40;1.30;;;;;;;12.11;100.00;101287.44;4996719;28;20038;-82
2024/01/24 02:49:40;;;;;;;1.60;1.17;;;;;;;12.08;100.00;101277.72;5014373;28;20466;-83
2024/01/24 02:52:06;;;;;;;2.42;1.45;;;;;;;12.07;100.00;101273.25;4996578;28;20044;-82
2024/01/24 02:54:32;;;;;;;1.38;1.27;;;;;;;12.05;100.00;101285.59;5013970;28;20057;-83
2024/01/24 02:56:57;;;;;;;1.00;1.00;;;;;;;12.03;100.00;101280.31;5014220;28;20030;-83
2024/01/24 02:59:23;;;;;;;1.02;1.02;;;;;;;12.07;100.00;101275.03;5013984;28;20112;-84
2024/01/24 03:01:49;;;;;;;1.20;1.10;;;;;;;12.12;100.00;101252.13;4996414;28;20038;-83
2024/01/24 03:04:14;;;;;;;1.50;1.40;;;;;;;12.12;100.00;101255.69;4996878;28;20034;-84
2024/01/24 03:06:40;;;;;;;1.52;1.40;;;;;;;12.04;100.00;101252.06;5014076;28;20117;-83
2024/01/24 03:09:07;;;;;;;1.65;1.55;;;;;;;12.11;100.00;101261.81;5013918;28;20037;-83
2024/01/24 03:11:32;;;;;;;1.85;1.75;;;;;;;12.06;100.00;101242.34;5013974;28;20030;-83
2024/01/24 03:13:58;;;;;;;2.97;2.10;;;;;;;12.15;100.00;101253.03;4996494;28;20088;-84
2024/01/24 03:16:23;;;;;;;2.13;1.90;;;;;;;12.03;100.00;101239.66;5014229;28;20056;-84
2024/01/24 03:18:49;;;;;;;2.58;1.90;;;;;;;12.23;100.00;101266.38;5013815;28;20092;-83
2024/01/24 03:21:16;;;;;;;2.63;1.88;;;;;;;12.27;100.00;101273.50;5013624;28;20048;-83
2024/01/24 03:23:42;;;;;;;2.00;1.73;;;;;;;12.18;100.00;101284.00;4996171;28;20117;-83
2024/01/24 03:26:07;;;;;;;2.72;1.90;;;;;;;12.31;100.00;101288.56;5013735;28;20120;-83
2024/01/24 03:28:36;;;;;;;3.38;1.80;;;;;;;12.24;100.00;101263.72;4995992;28;20033;-83
2024/01/24 03:31:02;;;;;;;2.00;1.60;;;;;;;12.26;100.00;101277.91;4995819;28;20438;-83
2024/01/24 03:33:27;;;;;;;1.73;1.50;;;;;;;12.30;100.00;101286.78;5013718;28;20034;-84
2024/01/24 03:35:53;;;;;;;3.20;1.75;;;;;;;12.38;100.00;101318.66;5013652;28;20045;-83
2024/01/24 03:38:19;;;;;;;2.17;1.63;;;;;;;12.38;100.00;101316.91;5012611;28;20042;-83
2024/01/24 03:40:45;;;;;;;5.15;1.83;;;;;;;12.37;100.00;101325.69;5013203;28;20088;-84
2024/01/24 03:43:11;;;;;;;3.67;1.80;;;;;;;12.34;100.00;101346.00;4995864;28;20057;-84
2024/01/24 03:45:37;;;;;;;2.55;1.80;;;;;;;12.14;100.00;101285.72;5013266;28;20046;-83
2024/01/24 03:48:04;;;;;;;4.35;1.80;;;;;;;12.37;100.00;101354.84;5013450;28;20112;-83
2024/01/24 03:50:29;;;;;;;3.58;1.77;;;;;;;12.24;100.00;101329.09;4995906;28;20066;-84
2024/01/24 03:52:54;;;;;;;4.10;1.70;;;;;;;12.39;100.00;101355.78;5013492;28;20111;-83
2024/01/24 03:55:20;;;;;;;4.70;1.70;;;;;;;12.37;100.00;101354.84;5013138;28;20037;-83
2024/01/24 03:57:45;;;;;;;8.43;1.95;;;;;;;12.34;100.00;101338.94;5013412;28;20606;-85
2024/01/24 04:00:11;;;;;;;5.82;2.00;;;;;;;12.35;100.00;101342.47;5013384;28;20160;-84
2024/01/24 04:02:37;;;;;;;7.47;2.28;;;;;;;12.40;100.00;101348.72;5013133;28;20053;-84
2024/01/24 04:05:02;;;;;;;6.80;2.03;;;;;;;12.35;100.00;101353.97;4995854;28;20049;-83
2024/01/24 04:07:28;;;;;;;8.30;2.22;;;;;;;12.35;100.00;101334.53;4995725;28;20033;-84
2024/01/24 04:09:53;;;;;;;7.25;2.20;;;;;;;12.19;100.00;101312.25;5012969;28;20045;-83
2024/01/24 04:12:18;;;;;;;9.35;2.45;;;;;;;12.32;100.00;101329.19;5013303;28;20029;-82
2024/01/24 04:14:44;;;;;;;11.95;2.42;;;;;;;12.28;100.00;101325.59;5013304;28;20066;-83
2024/01/24 04:17:09;;;;;;;11.90;2.58;;;;;;;12.39;100.00;101339.88;5013209;28;20037;-83
2024/01/24 04:19:35;;;;;;;11.75;2.83;;;;;;;12.42;100.00;101344.31;5013059;28;20099;-84
2024/01/24 04:22:00;;;;;;;12.98;2.72;;;;;;;12.31;100.00;101325.66;5012926;28;20077;-84
2024/01/24 04:24:25;;;;;;;13.70;2.88;;;;;;;12.22;100.00;101315.84;4995364;28;20041;-83
2024/01/24 04:26:51;;;;;;;12.23;2.80;;;;;;;12.34;100.00;101361.91;5013037;28;20475;-83
2024/01/24 04:29:16;;;;;;;13.38;3.28;;;;;;;12.27;100.00;101380.38;5012936;28;20029;-82
2024/01/24 04:31:42;;;;;;;12.50;2.50;;;;;;;12.17;100.00;101381.13;4995566;28;20515;-83
2024/01/24 04:34:07;;;;;;;10.98;2.78;;;;;;;12.16;100.00;101389.03;5012980;28;20117;-83
2024/01/24 04:36:33;;;;;;;16.05;3.97;;;;;;;12.25;100.00;101400.66;5012913;28;20061;-83
2024/01/24 04:38:59;;;;;;;19.15;3.83;;;;;;;12.27;100.00;101405.97;5012571;28;20545;-83
2024/01/24 04:41:25;;;;;;;13.73;3.13;;;;;;;12.16;100.00;101389.03;5012961;28;20074;-83
2024/01/24 04:43:50;;;;;;;18.27;3.38;;;;;;;12.16;100.00;101376.72;4995295;28;20034;-83
2024/01/24 04:46:16;;;;;;;18.02;3.45;;;;;;;12.15;100.00;101377.56;5012936;28;20044;-83
2024/01/24 04:48:43;;;;;;;16.67;3.53;;;;;;;12.05;100.00;101394.22;5013377;28;20463;-83
2024/01/24 04:51:08;;;;;;;15.95;3.25;;;;;;;12.07;100.00;101407.47;5016070;28;20038;-83
2024/01/24 04:53:35;;;;;;;16.08;3.50;;;;;;;12.10;100.00;101426.06;5016519;28;20397;-83
2024/01/24 04:56:00;;;;;;;16.70;3.42;;;;;;;11.94;100.00;101402.00;5016710;28;20034;-83
2024/01/24 04:58:25;;;;;;;17.15;3.80;;;;;;;12.02;100.00;101407.41;5016388;28;20041;-83
2024/01/24 05:00:51;;;;;;;17.23;3.70;;;;;;;12.05;100.00;101391.56;4982511;28;20516;-83
2024/01/24 05:03:16;;;;;;;21.77;4.20;;;;;;;11.96;100.00;101388.78;5016357;28;20033;-82
2024/01/24 05:05:41;;;;;;;23.02;4.15;;;;;;;12.01;100.00;101417.13;5016262;28;20168;-82
2024/01/24 05:08:07;;;;;;;20.40;4.25;;;;;;;11.90;100.00;101400.16;5016122;28;20076;-82
2024/01/24 05:10:32;;;;;;;19.13;3.55;;;;;;;12.00;100.00;101414.44;5016433;28;20387;-83
2024/01/24 05:12:57;;;;;;;21.63;4.20;;;;;;;11.95;100.00;101429.41;5016094;28;20037;-83
2024/01/24 05:15:23;;;;;;;18.17;3.90;;;;;;;11.91;100.00;101436.41;5016071;28;20030;-83
2024/01/24 05:17:48;;;;;;;22.73;4.00;;;;;;;11.92;100.00;101445.22;5016043;28;20038;-83
2024/01/24 05:20:14;;;;;;;18.40;4.35;;;;;;;11.94;100.00;101459.38;5015829;28;20471;-82
2024/01/24 05:22:39;;;;;;;19.83;3.97;;;;;;;11.94;100.00;101475.25;5015809;28;20037;-83
2024/01/24 05:25:05;;;;;;;23.58;4.93;;;;;;;11.87;100.00;101462.81;5015857;28;20041;-83
2024/01/24 05:27:31;;;;;;;20.15;4.30;;;;;;;11.99;99.67;101460.31;5015799;28;20037;-83
2024/01/24 05:29:56;;;;;;;22.13;4.68;;;;;;;11.93;98.76;101471.72;5015808;28;20096;-83
2024/01/24 05:32:22;;;;;;;23.10;4.45;;;;;;;11.91;99.52;101475.25;4982056;28;20360;-83
2024/01/24 05:34:47;;;;;;;20.85;4.53;;;;;;;11.96;99.74;101461.19;5015412;28;20400;-83
2024/01/24 05:37:12;;;;;;;24.63;4.57;;;;;;;11.95;98.99;101458.53;5015724;28;20030;-83
2024/01/24 05:39:38;;;;;;;24.23;4.40;;;;;;;11.96;99.53;101457.66;5015398;28;20030;-83
2024/01/24 05:42:03;;;;;;;24.95;4.80;;;;;;;11.82;100.00;101462.72;5015435;28;20034;-83
2024/01/24 05:44:29;;;;;;;22.73;4.22;;;;;;;11.78;100.00;101456.47;5015602;28;20042;-83
2024/01/24 05:46:54;;;;;;;20.35;4.15;;;;;;;11.93;100.00;101479.66;4997971;28;20072;-83
2024/01/24 05:49:19;;;;;;;28.45;4.75;;;;;;;11.89;100.00;101469.00;5015446;28;20030;-84
2024/01/24 05:51:45;;;;;;;23.10;4.50;;;;;;;11.59;100.00;101422.63;4997836;28;20462;-84
2024/01/24 05:54:10;;;;;;;27.27;5.25;;;;;;;11.86;99.99;101479.53;4998012;28;20037;-83
2024/01/24 05:56:36;;;;;;;21.30;4.28;;;;;;;11.83;100.00;101479.53;5015027;28;20444;-83
2024/01/24 05:59:01;;;;;;;26.40;4.28;;;;;;;11.82;99.37;101473.31;4997702;28;20034;-83
2024/01/24 06:01:27;;;;;;;24.90;4.63;;;;;;;11.75;99.87;101469.66;5014520;28;20042;-83
2024/01/24 06:03:52;;;;;;;19.80;4.43;;;;;;;11.79;99.06;101476.78;4997868;28;20029;-83
2024/01/24 06:06:18;;;;;;;19.75;4.28;;;;;;;11.79;98.69;101474.13;5015149;28;20526;-83
2024/01/24 06:08:44;;;;;;;22.85;4.63;;;;;;;11.74;98.91;101489.06;5014781;28;20030;-82
2024/01/24 06:11:11;;;;;;;26.88;4.85;;;;;;;11.79;99.32;101499.72;5015094;28;20030;-82
2024/01/24 06:13:36;;;;;;;24.05;4.72;;;;;;;11.80;98.88;101525.34;5014993;28;20038;-82
2024/01/24 06:16:02;;;;;;;24.33;4.68;;;;;;;11.58;98.25;101470.25;5014900;28;20041;-82
2024/01/24 06:18:27;;;;;;;27.42;5.25;;;;;;;11.71;97.42;101507.53;4997474;28;20479;-83
2024/01/24 06:20:52;;;;;;;28.77;5.10;;;;;;;11.54;97.61;101509.91;5014390;28;20034;-83
2024/01/24 06:23:18;;;;;;;23.80;4.95;;;;;;;11.65;98.06;101540.94;5014798;28;20481;-83
2024/01/24 06:25:43;;;;;;;25.30;5.82;;;;;;;11.75;97.70;101570.28;5014788;28;20084;-83
2024/01/24 06:28:09;;;;;;;25.05;5.20;;;;;;;11.71;96.80;101586.06;5014698;28;20481;-82
2024/01/24 06:30:34;;;;;;;29.13;4.97;;;;;;;11.61;97.02;101557.66;5014670;28;20025;-83
2024/01/24 06:32:59;;;;;;;25.50;5.50;;;;;;;11.66;95.79;101567.47;5014614;28;20038;-83
2024/01/24 06:35:25;;;;;;;25.80;4.68;;;;;;;11.69;94.73;101577.19;5014612;28;20398;-82
2024/01/24 06:37:51;;;;;;;23.98;5.60;;;;;;;11.62;95.04;101594.75;5014848;28;20073;-83
2024/01/24 06:40:19;;;;;;;28.00;5.13;;;;;;;11.59;96.17;101609.66;5013920;28;20054;-82
2024/01/24 06:42:45;;;;;;;27.67;4.72;;;;;;;11.51;95.48;101607.75;5014438;28;20042;-84
2024/01/24 06:45:11;;;;;;;27.50;5.53;;;;;;;11.49;95.81;101608.63;5014496;28;20169;-82
2024/01/24 06:47:37;;;;;;;30.90;5.25;;;;;;;11.48;96.81;101634.19;5013998;28;20037;-83
2024/01/24 06:50:03;;;;;;;29.73;5.57;;;;;;;11.40;96.24;101625.19;5014195;28;20049;-83
2024/01/24 06:52:30;;;;;;;31.85;6.20;;;;;;;11.44;95.72;101618.22;5014329;28;20034;-82
2024/01/24 06:54:56;;;;;;;31.25;6.00;;;;;;;11.32;94.78;101631.22;5014147;28;20037;-82
2024/01/24 06:57:21;;;;;;;34.15;5.80;;;;;;;11.45;95.05;101667.63;5014219;28;20175;-82
2024/01/24 06:59:46;;;;;;;27.58;5.63;;;;;;;11.48;93.68;101675.66;5014069;28;20040;-84
2024/01/24 07:02:13;;;;;;;29.17;5.00;;;;;;;11.31;94.31;101666.47;5014162;28;20433;-83
2024/01/24 07:04:38;;;;;;;35.58;5.43;;;;;;;11.35;94.58;101658.63;5013985;28;20038;-82
2024/01/24 07:07:04;;;;;;;33.03;5.90;;;;;;;11.22;93.85;101631.03;5014023;28;20033;-83
2024/01/24 07:09:29;;;;;;;35.60;5.90;;;;;;;11.14;94.34;101642.31;5014014;28;20530;-82
2024/01/24 07:11:54;;;;;;;32.22;5.75;;;;;;;11.16;94.28;101677.59;5013517;28;20034;-83
2024/01/24 07:14:20;;;;;;;37.55;6.28;;;;;;;11.13;94.26;101701.34;5013905;28;20478;-82
2024/01/24 07:16:45;;;;;;;29.50;5.40;;;;;;;11.09;93.84;101692.47;5013783;28;20092;-83
2024/01/24 07:19:11;;;;;;;36.50;6.10;;;;;;;11.02;94.68;101677.31;5013811;28;20382;-83
2024/01/24 07:21:36;;;;;;;32.50;6.22;;;;;;;11.02;93.90;101679.94;5013327;28;20069;-83
2024/01/24 07:24:03;;;;;;;31.45;5.05;;;;;;;10.99;94.19;101709.84;5013800;28;20026;-83
2024/01/24 07:26:28;;;;;;;37.05;5.50;;;;;;;10.88;94.73;101689.34;5013440;28;20033;-82
2024/01/24 07:28:54;;;;;;;32.53;6.47;;;;;;;10.83;95.19;101675.97;5013744;28;20336;-82
2024/01/24 07:31:19;;;;;;;35.38;5.22;;;;;;;10.76;95.02;101663.50;5013515;28;20034;-83
2024/01/24 07:33:45;;;;;;;33.08;5.85;;;;;;;10.91;95.63;101715.81;4995611;28;20076;-84
2024/01/24 07:36:10;;;;;;;29.35;5.93;;;;;;;10.90;94.70;101717.56;5013368;28;20422;-83
2024/01/24 07:38:37;;;;;;;39.17;5.57;;;;;;;10.72;93.97;101702.19;5013543;28;20072;-83
2024/01/24 07:41:02;;;;;;;40.60;6.53;;;;;;;10.79;94.02;101713.78;5013189;28;20053;-83
2024/01/24 07:43:29;;;;;;;24.75;5.00;;;;;;;10.87;93.23;101713.97;5013259;28;20489;-83
2024/01/24 07:45:54;;;;;;;32.47;6.07;;;;;;;10.82;93.39;101713.84;4995739;28;20030;-82
2024/01/24 07:48:20;;;;;;;27.48;5.40;;;;;;;10.77;93.21;101732.25;5013141;28;20057;-83
2024/01/24 07:50:45;;;;;;;34.90;6.00;;;;;;;10.70;92.86;101737.34;5013275;28;20037;-83
2024/01/24 07:53:11;;;;;;;27.73;5.45;;;;;;;10.71;92.41;101752.38;5013207;28;20113;-83
2024/01/24 07:55:36;;;;;;;33.13;5.60;;;;;;;10.57;92.18;101735.25;5012982;28;20116;-83
2024/01/24 07:58:02;;;;;;;34.17;6.07;;;;;;;10.62;92.00;101766.25;5013140;28;20044;-83
2024/01/24 08:00:27;;;;;;;35.72;5.70;;;;;;;10.71;90.83;101758.56;5013091;28;20445;-82
2024/01/24 08:02:53;;;;;;;34.67;5.90;;;;;;;10.46;89.97;101708.59;5013085;28;20034;-83
2024/01/24 08:05:19;;;;;;;32.90;6.55;;;;;;;10.52;89.91;101740.44;5012707;28;20030;-82
2024/01/24 08:07:44;;;;;;;28.77;5.45;;;;;;;10.66;89.81;101760.19;5012897;28;20467;-82
2024/01/24 08:10:13;;;;;;;36.22;5.70;;;;;;;10.61;89.16;101760.91;5012934;28;20382;-82
2024/01/24 08:12:39;;;;;;;36.15;7.03;;;;;;;10.61;89.39;101740.66;4995200;28;20378;-83
2024/01/24 08:15:06;;;;;;;41.15;6.10;;;;;;;10.64;90.07;101766.28;4995224;28;20061;-83
2024/01/24 08:17:34;;;;;;;32.75;6.47;;;;;;;10.52;90.20;101761.56;5012789;28;20072;-83
2024/01/24 08:19:59;;;;;;;37.13;6.15;;;;;;;10.61;90.34;101787.34;5012812;28;20038;-82
2024/01/24 08:22:28;;;;;;;38.05;6.25;;;;;;;10.59;89.35;101802.28;4995053;28;20083;-81
2024/01/24 08:24:53;;;;;;;28.67;5.88;;;;;;;10.67;90.01;101811.31;5015222;28;20037;-82
2024/01/24 08:27:19;;;;;;;34.95;5.93;;;;;;;10.69;89.73;101797.25;5016545;28;20038;-82
2024/01/24 08:29:44;;;;;;;29.10;5.88;;;;;;;10.78;89.21;101816.00;5016910;28;20058;-82
2024/01/24 08:32:09;;;;;;;30.15;5.25;;;;;;;10.78;89.77;101783.38;5016178;28;20030;-82
2024/01/24 08:34:35;;;;;;;34.08;6.78;;;;;;;10.71;88.87;101805.25;4998737;28;20125;-82
2024/01/24 08:37:01;;;;;;;35.28;5.82;;;;;;;10.83;89.25;101817.88;5016309;28;20030;-81
2024/01/24 08:39:26;;;;;;;35.10;5.85;;;;;;;10.78;89.57;101823.03;5016297;28;20033;-83
2024/01/24 08:41:52;;;;;;;36.33;5.70;;;;;;;10.77;88.47;101826.53;5016436;28;20053;-82
2024/01/24 08:44:18;;;;;;;33.05;5.93;;;;;;;10.85;89.15;101845.25;5016663;28;20139;-81
2024/01/24 08:46:43;;;;;;;32.55;5.63;;;;;;;10.68;88.70;101807.81;5016296;28;20037;-82
2024/01/24 08:49:12;;;;;;;29.30;5.13;;;;;;;10.95;88.60;101852.56;5015824;28;20118;-81
2024/01/24 08:51:38;;;;;;;36.67;6.05;;;;;;;10.92;89.09;101861.31;5016124;28;20041;-83
2024/01/24 08:54:03;;;;;;;31.98;5.28;;;;;;;10.95;87.66;101852.56;4998630;28;20038;-81
2024/01/24 08:56:28;;;;;;;30.35;5.53;;;;;;;10.93;89.29;101854.28;5016282;28;20030;-80
2024/01/24 08:58:54;;;;;;;33.08;5.28;;;;;;;10.91;88.19;101841.00;4998683;28;20128;-81
2024/01/24 09:01:19;;;;;;;31.17;5.65;;;;;;;10.92;88.17;101849.81;5016049;28;20086;-81
2024/01/24 09:03:46;;;;;;;33.33;6.50;;;;;;;10.94;88.90;101870.16;5016358;28;20038;-83
2024/01/24 09:06:12;;;;;;;31.65;6.32;;;;;;;10.82;88.60;101859.28;5015821;28;20084;-84
2024/01/24 09:08:37;;;;;;;34.65;5.85;;;;;;;11.00;88.75;101901.16;5015877;28;20458;-82
2024/01/24 09:11:03;;;;;;;36.38;6.55;;;;;;;10.84;88.75;101884.03;5015782;28;20030;-82
2024/01/24 09:13:29;;;;;;;34.35;6.55;;;;;;;10.95;88.11;101910.72;5015753;28;20066;-81
2024/01/24 09:15:55;;;;;;;33.85;5.68;;;;;;;10.98;88.97;101892.31;5015815;28;20052;-81
2024/01/24 09:18:20;;;;;;;34.75;6.55;;;;;;;11.00;88.43;101885.28;5015775;28;20120;-81
2024/01/24 09:20:46;;;;;;;27.25;5.85;;;;;;;11.00;88.64;101890.59;5015209;28;20124;-82
2024/01/24 09:23:12;;;;;;;28.05;5.55;;;;;;;10.96;88.11;101884.34;5015723;28;20045;-82
2024/01/24 09:25:38;;;;;;;26.80;5.22;;;;;;;11.03;87.63;101882.72;5015612;28;20080;-81
2024/01/24 09:28:08;;;;;;;26.63;5.43;;;;;;;11.00;87.36;101874.72;5015189;28;20158;-80
2024/01/24 09:30:33;;;;;;;30.10;6.30;;;;;;;11.21;87.02;101898.16;5015557;28;20418;-82
2024/01/24 09:32:58;;;;;;;30.50;6.03;;;;;;;11.34;87.10;101941.72;5015214;28;20062;-81
2024/01/24 09:35:24;;;;;;;26.90;5.05;;;;;;;11.23;86.61;101942.34;4997836;28;20072;-82
2024/01/24 09:37:49;;;;;;;31.55;5.50;;;;;;;11.37;86.48;101947.09;5015351;28;20593;-81
2024/01/24 09:40:15;;;;;;;39.55;6.00;;;;;;;11.29;87.37;101931.91;5015081;28;20414;-81
2024/01/24 09:42:42;;;;;;;29.98;5.38;;;;;;;11.46;86.24;101958.78;5015297;28;20124;-81
2024/01/24 09:45:09;;;;;;;32.55;6.05;;;;;;;11.38;87.14;101944.47;5015195;28;20041;-82
2024/01/24 09:47:35;;;;;;;33.20;5.93;;;;;;;11.52;86.81;101964.25;5014971;28;20053;-81
2024/01/24 09:50:04;;;;;;;33.55;5.57;;;;;;;11.58;87.00;101965.25;5015275;28;20069;-82
2024/01/24 09:52:34;;;;;;;33.05;5.70;;;;;;;11.65;86.33;101968.09;5014874;28;20029;-81
2024/01/24 09:55:04;;;;;;;39.45;6.05;;;;;;;11.62;85.38;101954.78;5015010;28;20033;-83
2024/01/24 09:57:32;;;;;;;34.60;6.05;;;;;;;11.65;85.42;101975.13;5015055;28;20422;-83
2024/01/24 09:59:57;;;;;;;33.00;5.93;;;;;;;11.72;85.40;101985.91;5014480;28;20367;-83
2024/01/24 10:02:27;;;;;;;36.60;6.13;;;;;;;11.61;85.00;101968.00;4997300;28;20048;-83
2024/01/24 10:04:53;;;;;;;29.55;5.68;;;;;;;11.50;85.23;101960.66;5014837;28;20030;-82
2024/01/24 10:07:19;;;;;;;29.73;5.60;;;;;;;11.60;85.03;101987.34;5014503;28;20052;-81
2024/01/24 10:09:56;;;;;;;31.02;5.82;;;;;;;11.79;84.18;102016.09;5014719;28;20030;-82
2024/01/24 10:12:21;;;;;;;34.17;5.97;;;;;;;11.89;84.30;102007.53;5014640;28;20026;-81
2024/01/24 10:14:46;;;;;;;35.15;6.70;;;;;;;11.92;83.24;102018.22;5014911;28;20382;-82
2024/01/24 10:17:13;;;;;;;29.85;5.80;;;;;;;11.92;82.38;102023.50;5014671;28;20034;-83
2024/01/24 10:19:39;;;;;;;26.77;5.60;;;;;;;11.95;82.97;102012.09;5014623;28;20060;-83
2024/01/24 10:22:04;;;;;;;34.17;6.10;;;;;;;11.94;82.63;102005.88;5014396;28;20042;-83
2024/01/24 10:24:31;;;;;;;30.67;6.00;;;;;;;12.10;82.27;102008.91;5014574;28;20417;-82
2024/01/24 10:26:57;;;;;;;33.97;5.70;;;;;;;12.11;81.70;102011.56;5014583;28;20038;-81
2024/01/24 10:29:22;;;;;;;35.42;5.88;;;;;;;12.24;82.16;102026.88;5014482;28;20037;-83
2024/01/24 10:31:54;;;;;;;27.80;5.22;;;;;;;12.23;81.49;102009.22;5014589;28;20037;-84
2024/01/24 10:34:20;;;;;;;37.33;6.10;;;;;;;12.17;81.80;102009.09;5014515;28;20108;-83
2024/01/24 10:36:46;;;;;;;36.05;6.35;;;;;;;12.25;80.72;101996.91;5014110;28;20026;-82
2024/01/24 10:39:16;;;;;;;24.30;5.15;;;;;;;12.23;80.78;102010.97;5014271;28;20037;-83
2024/01/24 10:41:43;;;;;;;33.13;5.70;;;;;;;12.27;80.45;102065.84;5014195;28;20144;-83
2024/01/24 10:44:10;;;;;;;31.08;5.47;;;;;;;12.25;80.49;102063.16;5014149;28;20040;-83
2024/01/24 10:46:37;;;;;;;34.00;5.85;;;;;;;12.09;80.90;102045.09;5013614;28;20040;-83
2024/01/24 10:49:03;;;;;;;32.90;5.75;;;;;;;12.14;80.23;102048.75;5014001;28;20030;-83
2024/01/24 10:51:29;;;;;;;43.97;6.43;;;;;;;12.09;80.70;102054.81;5014011;28;20033;-83
2024/01/24 10:53:55;;;;;;;32.88;6.35;;;;;;;12.05;81.15;102060.88;4996527;28;20037;-85
2024/01/24 10:56:23;;;;;;;29.02;5.07;;;;;;;11.97;80.47;102074.84;4996399;28;20037;-84
2024/01/24 10:58:49;;;;;;;25.95;5.80;;;;;;;12.02;80.91;102075.84;5013762;28;20065;-85
2024/01/24 11:01:15;;;;;;;42.33;5.97;;;;;;;11.93;80.72;102070.31;5013974;28;20033;-84
2024/01/24 11:03:41;;;;;;;27.38;5.05;;;;;;;11.99;79.79;102064.25;5013684;28;20096;-85
2024/01/24 11:06:12;;;;;;;33.50;5.82;;;;;;;11.96;80.60;102080.09;5013723;28;20103;-84
2024/01/24 11:08:38;;;;;;;33.33;5.63;;;;;;;11.98;80.38;102079.25;5013634;28;20100;-84
2024/01/24 11:11:09;;;;;;;30.00;5.35;;;;;;;11.86;80.92;102068.41;5013767;28;20029;-85